This is the latest recevied weather packets stored in our database for station/object W8RD. If no packets are shown the sender has not sent any weather packets the latest 10 day(s).
| Time | Temp. | Humidity | Pressure | Rain* | Wind** | Luminosity | Snow |
|---|---|---|---|---|---|---|---|
| 1777748240 | 21.11° C | 92% | 1013.5 hPa | 42.67 mm | - | 10 W/m² | - |
| 1777747640 | 23.89° C | 82% | 1013.2 hPa | 10.67 mm | - | 6 W/m² | - |
| 1777747038 | 26.67° C | 87% | 1012.7 hPa | 0 mm | - | 4 W/m² | - |
| 1777746435 | 26.67° C | 87% | 1012.5 hPa | 0 mm | - | 13 W/m² | - |
| 1777745834 | 26.67° C | 87% | 1012.6 hPa | 0 mm | - | 35 W/m² | - |
| 1777745230 | 26.67° C | 86% | 1012.5 hPa | 0 mm | - | 32 W/m² | - |
| 1777744627 | 26.67° C | 86% | 1012.7 hPa | 0 mm | - | 25 W/m² | - |
| 1777744026 | 26.67° C | 85% | 1012.7 hPa | 0 mm | - | 35 W/m² | - |
| 1777743425 | 27.22° C | 84% | 1012.8 hPa | 0 mm | - | 39 W/m² | - |
| 1777742820 | 27.22° C | 84% | 1012.7 hPa | 0 mm | - | 59 W/m² | - |
| 1777742218 | 27.78° C | 82% | 1012.6 hPa | 0 mm | - | 56 W/m² | - |
| 1777741619 | 27.78° C | 81% | 1012.9 hPa | 0 mm | - | 83 W/m² | - |
| 1777741017 | 27.78° C | 81% | 1012.8 hPa | 0 mm | - | 129 W/m² | - |
| 1777740416 | 27.78° C | 80% | 1012.9 hPa | 0 mm | - | 112 W/m² | - |
| 1777739815 | 28.33° C | 78% | 1012.9 hPa | 0 mm | - | 121 W/m² | - |
| 1777739215 | 28.89° C | 76% | 1012.8 hPa | 0 mm | - | 175 W/m² | - |
| 1777738616 | 28.89° C | 77% | 1012.8 hPa | 0 mm | - | 191 W/m² | - |
| 1777738010 | 29.44° C | 74% | 1012.7 hPa | 0 mm | - | 197 W/m² | - |
| 1777737407 | 29.44° C | 74% | 1012.6 hPa | 0 mm | - | 196 W/m² | - |
| 1777736806 | 29.44° C | 74% | 1012.9 hPa | 0 mm | - | 139 W/m² | - |
| 1777736183 | 28.89° C | 77% | 1012.6 hPa | 0 mm | - | 152 W/m² | - |
| 1777735577 | 28.33° C | 77% | 1012.9 hPa | 0 mm | - | 150 W/m² | - |
| 1777734978 | 28.89° C | 75% | 1012.9 hPa | 0 mm | - | 176 W/m² | - |
| 1777734373 | 28.33° C | 77% | 1012.9 hPa | 0 mm | - | 186 W/m² | - |
| 1777733771 | 28.33° C | 76% | 1012.6 hPa | 0 mm | - | 130 W/m² | - |
* Rain latest hour (hover to see other rain measurements)
** Current wind speed in m/s (hover to see current wind gust speed)